sensor_id;sensor_type;location;lat;lon;timestamp;temperature;humidity
23669;DHT22;12011;47.422;15.018;2024-03-22T00:00:14;6.70;99.90
23669;DHT22;12011;47.422;15.018;2024-03-22T00:02:44;6.70;99.90
23669;DHT22;12011;47.422;15.018;2024-03-22T00:05:11;6.60;99.90
23669;DHT22;12011;47.422;15.018;2024-03-22T00:07:39;6.40;99.90
23669;DHT22;12011;47.422;15.018;2024-03-22T00:10:08;6.20;99.90
23669;DHT22;12011;47.422;15.018;2024-03-22T00:12:38;6.00;99.90
23669;DHT22;12011;47.422;15.018;2024-03-22T00:15:23;5.60;99.90
23669;DHT22;12011;47.422;15.018;2024-03-22T00:17:54;5.50;99.90
23669;DHT22;12011;47.422;15.018;2024-03-22T00:20:29;5.50;99.90
23669;DHT22;12011;47.422;15.018;2024-03-22T00:22:58;5.50;99.90
23669;DHT22;12011;47.422;15.018;2024-03-22T00:25:31;5.40;99.90
23669;DHT22;12011;47.422;15.018;2024-03-22T00:28:01;5.10;99.90
23669;DHT22;12011;47.422;15.018;2024-03-22T00:30:35;5.00;99.90
23669;DHT22;12011;47.422;15.018;2024-03-22T00:33:03;5.10;99.90
23669;DHT22;12011;47.422;15.018;2024-03-22T00:35:35;5.10;99.90
23669;DHT22;12011;47.422;15.018;2024-03-22T00:38:08;5.10;99.90
23669;DHT22;12011;47.422;15.018;2024-03-22T00:40:40;5.00;99.90
23669;DHT22;12011;47.422;15.018;2024-03-22T00:43:12;4.60;99.90
23669;DHT22;12011;47.422;15.018;2024-03-22T00:45:43;4.30;99.90
23669;DHT22;12011;47.422;15.018;2024-03-22T00:48:10;4.20;99.90
23669;DHT22;12011;47.422;15.018;2024-03-22T00:50:41;4.30;99.90
23669;DHT22;12011;47.422;15.018;2024-03-22T00:53:14;4.40;99.90
23669;DHT22;12011;47.422;15.018;2024-03-22T00:55:43;4.30;99.90
23669;DHT22;12011;47.422;15.018;2024-03-22T00:58:14;4.10;99.90
23669;DHT22;12011;47.422;15.018;2024-03-22T01:00:50;4.60;99.90
23669;DHT22;12011;47.422;15.018;2024-03-22T01:03:25;4.80;99.90
23669;DHT22;12011;47.422;15.018;2024-03-22T01:05:56;4.40;99.90
23669;DHT22;12011;47.422;15.018;2024-03-22T01:08:25;4.40;99.90
23669;DHT22;12011;47.422;15.018;2024-03-22T01:10:56;4.40;99.90
23669;DHT22;12011;47.422;15.018;2024-03-22T01:13:23;4.10;99.90
23669;DHT22;12011;47.422;15.018;2024-03-22T01:15:58;4.20;99.90
23669;DHT22;12011;47.422;15.018;2024-03-22T01:18:26;4.30;99.90
23669;DHT22;12011;47.422;15.018;2024-03-22T01:20:56;4.00;99.90
23669;DHT22;12011;47.422;15.018;2024-03-22T01:23:23;3.90;99.90
23669;DHT22;12011;47.422;15.018;2024-03-22T01:25:50;3.90;99.90
23669;DHT22;12011;47.422;15.018;2024-03-22T01:28:20;4.10;99.90
23669;DHT22;12011;47.422;15.018;2024-03-22T01:30:48;3.90;99.90
23669;DHT22;12011;47.422;15.018;2024-03-22T01:33:18;4.00;99.90
23669;DHT22;12011;47.422;15.018;2024-03-22T01:35:46;3.90;99.90
23669;DHT22;12011;47.422;15.018;2024-03-22T01:38:14;3.90;99.90
23669;DHT22;12011;47.422;15.018;2024-03-22T01:40:43;3.70;99.90
23669;DHT22;12011;47.422;15.018;2024-03-22T01:43:17;3.60;99.90
23669;DHT22;12011;47.422;15.018;2024-03-22T01:45:44;3.50;99.90
23669;DHT22;12011;47.422;15.018;2024-03-22T01:48:13;3.30;99.90
23669;DHT22;12011;47.422;15.018;2024-03-22T01:50:46;3.40;99.90
23669;DHT22;12011;47.422;15.018;2024-03-22T01:53:14;3.50;99.90
23669;DHT22;12011;47.422;15.018;2024-03-22T01:55:47;3.60;99.90
23669;DHT22;12011;47.422;15.018;2024-03-22T01:58:16;3.50;99.90
23669;DHT22;12011;47.422;15.018;2024-03-22T02:00:43;3.60;99.90
23669;DHT22;12011;47.422;15.018;2024-03-22T02:03:14;3.60;99.90
23669;DHT22;12011;47.422;15.018;2024-03-22T02:05:44;3.60;99.90
23669;DHT22;12011;47.422;15.018;2024-03-22T02:08:12;3.50;99.90
23669;DHT22;12011;47.422;15.018;2024-03-22T02:10:40;3.30;99.90
23669;DHT22;12011;47.422;15.018;2024-03-22T02:13:12;3.10;99.90
23669;DHT22;12011;47.422;15.018;2024-03-22T02:15:48;3.00;99.90
23669;DHT22;12011;47.422;15.018;2024-03-22T02:18:21;3.00;99.90
23669;DHT22;12011;47.422;15.018;2024-03-22T02:20:53;3.40;99.90
23669;DHT22;12011;47.422;15.018;2024-03-22T02:23:33;3.30;99.90
23669;DHT22;12011;47.422;15.018;2024-03-22T02:26:03;3.00;99.90
23669;DHT22;12011;47.422;15.018;2024-03-22T02:28:32;3.10;99.90
23669;DHT22;12011;47.422;15.018;2024-03-22T02:31:03;2.80;99.90
23669;DHT22;12011;47.422;15.018;2024-03-22T02:33:33;3.00;99.90
23669;DHT22;12011;47.422;15.018;2024-03-22T02:36:07;2.90;99.90
23669;DHT22;12011;47.422;15.018;2024-03-22T02:38:37;3.00;99.90
23669;DHT22;12011;47.422;15.018;2024-03-22T02:41:11;3.00;99.90
23669;DHT22;12011;47.422;15.018;2024-03-22T02:43:38;2.30;99.90
23669;DHT22;12011;47.422;15.018;2024-03-22T02:46:07;2.70;99.90
23669;DHT22;12011;47.422;15.018;2024-03-22T02:48:37;2.70;99.90
23669;DHT22;12011;47.422;15.018;2024-03-22T02:51:04;3.20;99.90
23669;DHT22;12011;47.422;15.018;2024-03-22T02:53:33;2.80;99.90
23669;DHT22;12011;47.422;15.018;2024-03-22T02:56:04;2.80;99.90
23669;DHT22;12011;47.422;15.018;2024-03-22T02:58:31;2.60;99.90
23669;DHT22;12011;47.422;15.018;2024-03-22T03:00:58;2.40;99.90
23669;DHT22;12011;47.422;15.018;2024-03-22T03:03:26;2.50;99.90
23669;DHT22;12011;47.422;15.018;2024-03-22T03:05:55;2.60;99.90
23669;DHT22;12011;47.422;15.018;2024-03-22T03:08:22;2.50;99.90
23669;DHT22;12011;47.422;15.018;2024-03-22T03:10:52;2.40;99.90
23669;DHT22;12011;47.422;15.018;2024-03-22T03:13:26;2.60;99.90
23669;DHT22;12011;47.422;15.018;2024-03-22T03:16:06;2.40;99.90
23669;DHT22;12011;47.422;15.018;2024-03-22T03:18:39;2.40;99.90
23669;DHT22;12011;47.422;15.018;2024-03-22T03:21:08;2.20;99.90
23669;DHT22;12011;47.422;15.018;2024-03-22T03:23:37;2.70;99.90
23669;DHT22;12011;47.422;15.018;2024-03-22T03:26:04;2.60;99.90
23669;DHT22;12011;47.422;15.018;2024-03-22T03:28:37;2.60;99.90
23669;DHT22;12011;47.422;15.018;2024-03-22T03:31:10;3.10;99.90
23669;DHT22;12011;47.422;15.018;2024-03-22T03:33:37;2.50;99.90
23669;DHT22;12011;47.422;15.018;2024-03-22T03:36:06;2.60;99.90
23669;DHT22;12011;47.422;15.018;2024-03-22T03:38:35;2.50;99.90
23669;DHT22;12011;47.422;15.018;2024-03-22T03:41:03;2.80;99.90
23669;DHT22;12011;47.422;15.018;2024-03-22T03:43:31;2.60;99.90
23669;DHT22;12011;47.422;15.018;2024-03-22T03:46:00;2.70;99.90
23669;DHT22;12011;47.422;15.018;2024-03-22T03:48:31;2.70;99.90
23669;DHT22;12011;47.422;15.018;2024-03-22T03:51:01;2.60;99.90
23669;DHT22;12011;47.422;15.018;2024-03-22T03:53:31;2.70;99.90
23669;DHT22;12011;47.422;15.018;2024-03-22T03:56:04;2.60;99.90
23669;DHT22;12011;47.422;15.018;2024-03-22T03:58:31;2.40;99.90
23669;DHT22;12011;47.422;15.018;2024-03-22T04:01:05;2.40;99.90
23669;DHT22;12011;47.422;15.018;2024-03-22T04:03:34;2.40;99.90
23669;DHT22;12011;47.422;15.018;2024-03-22T04:06:04;2.50;99.90
23669;DHT22;12011;47.422;15.018;2024-03-22T04:08:34;2.50;99.90
23669;DHT22;12011;47.422;15.018;2024-03-22T04:11:04;2.60;99.90
23669;DHT22;12011;47.422;15.018;2024-03-22T04:13:31;2.50;99.90
23669;DHT22;12011;47.422;15.018;2024-03-22T04:16:07;2.80;99.90
23669;DHT22;12011;47.422;15.018;2024-03-22T04:18:38;2.50;99.90
23669;DHT22;12011;47.422;15.018;2024-03-22T04:21:05;2.60;99.90
23669;DHT22;12011;47.422;15.018;2024-03-22T04:23:37;2.50;99.90
23669;DHT22;12011;47.422;15.018;2024-03-22T04:26:06;2.60;99.90
23669;DHT22;12011;47.422;15.018;2024-03-22T04:28:34;2.70;99.90
23669;DHT22;12011;47.422;15.018;2024-03-22T04:31:08;2.90;99.90
23669;DHT22;12011;47.422;15.018;2024-03-22T04:33:37;3.00;99.90
23669;DHT22;12011;47.422;15.018;2024-03-22T04:36:06;3.10;99.90
23669;DHT22;12011;47.422;15.018;2024-03-22T04:38:35;3.10;99.90
23669;DHT22;12011;47.422;15.018;2024-03-22T04:41:06;3.20;99.90
23669;DHT22;12011;47.422;15.018;2024-03-22T04:43:36;3.30;99.90
23669;DHT22;12011;47.422;15.018;2024-03-22T04:46:07;3.30;99.90
23669;DHT22;12011;47.422;15.018;2024-03-22T04:48:34;3.40;99.90
23669;DHT22;12011;47.422;15.018;2024-03-22T04:51:06;3.40;99.90
23669;DHT22;12011;47.422;15.018;2024-03-22T04:53:37;3.50;99.90
23669;DHT22;12011;47.422;15.018;2024-03-22T04:56:11;3.60;99.90
23669;DHT22;12011;47.422;15.018;2024-03-22T04:58:39;3.70;99.90
23669;DHT22;12011;47.422;15.018;2024-03-22T05:01:10;3.70;99.90
23669;DHT22;12011;47.422;15.018;2024-03-22T05:03:38;3.70;99.90
23669;DHT22;12011;47.422;15.018;2024-03-22T05:06:06;3.90;99.90
23669;DHT22;12011;47.422;15.018;2024-03-22T05:08:34;3.90;99.90
23669;DHT22;12011;47.422;15.018;2024-03-22T05:11:04;3.90;99.90
23669;DHT22;12011;47.422;15.018;2024-03-22T05:13:35;3.90;99.90
23669;DHT22;12011;47.422;15.018;2024-03-22T05:16:09;3.90;99.90
23669;DHT22;12011;47.422;15.018;2024-03-22T05:18:39;4.00;99.90
23669;DHT22;12011;47.422;15.018;2024-03-22T05:21:06;4.00;99.90
23669;DHT22;12011;47.422;15.018;2024-03-22T05:23:38;4.10;99.90
23669;DHT22;12011;47.422;15.018;2024-03-22T05:26:10;4.40;99.90
23669;DHT22;12011;47.422;15.018;2024-03-22T05:28:39;4.20;99.90
23669;DHT22;12011;47.422;15.018;2024-03-22T05:31:16;4.30;99.90
23669;DHT22;12011;47.422;15.018;2024-03-22T05:33:57;4.30;99.90
23669;DHT22;12011;47.422;15.018;2024-03-22T05:36:30;4.40;99.90
23669;DHT22;12011;47.422;15.018;2024-03-22T05:39:04;3.50;99.90
23669;DHT22;12011;47.422;15.018;2024-03-22T05:41:33;4.40;99.90
23669;DHT22;12011;47.422;15.018;2024-03-22T05:44:01;4.50;99.90
23669;DHT22;12011;47.422;15.018;2024-03-22T05:46:42;4.70;99.90
23669;DHT22;12011;47.422;15.018;2024-03-22T05:49:14;4.80;99.90
23669;DHT22;12011;47.422;15.018;2024-03-22T05:51:43;4.80;99.90
23669;DHT22;12011;47.422;15.018;2024-03-22T05:54:12;5.00;99.90
23669;DHT22;12011;47.422;15.018;2024-03-22T05:56:43;5.10;99.90
23669;DHT22;12011;47.422;15.018;2024-03-22T05:59:14;5.20;99.90
23669;DHT22;12011;47.422;15.018;2024-03-22T06:01:49;5.50;99.90
23669;DHT22;12011;47.422;15.018;2024-03-22T06:04:19;6.00;99.90
23669;DHT22;12011;47.422;15.018;2024-03-22T06:06:46;7.10;99.90
23669;DHT22;12011;47.422;15.018;2024-03-22T06:09:12;7.70;99.90
23669;DHT22;12011;47.422;15.018;2024-03-22T06:11:39;7.80;99.90
23669;DHT22;12011;47.422;15.018;2024-03-22T06:14:06;7.90;99.90
23669;DHT22;12011;47.422;15.018;2024-03-22T06:16:32;9.00;99.90
23669;DHT22;12011;47.422;15.018;2024-03-22T06:19:02;10.40;99.90
23669;DHT22;12011;47.422;15.018;2024-03-22T06:21:29;11.30;99.90
23669;DHT22;12011;47.422;15.018;2024-03-22T06:23:56;11.90;99.90
23669;DHT22;12011;47.422;15.018;2024-03-22T06:26:23;12.10;95.80
23669;DHT22;12011;47.422;15.018;2024-03-22T06:28:49;12.30;96.70
23669;DHT22;12011;47.422;15.018;2024-03-22T06:31:16;12.80;99.90
23669;DHT22;12011;47.422;15.018;2024-03-22T06:33:43;12.90;92.40
23669;DHT22;12011;47.422;15.018;2024-03-22T06:36:12;13.60;84.60
23669;DHT22;12011;47.422;15.018;2024-03-22T06:38:39;14.00;78.60
23669;DHT22;12011;47.422;15.018;2024-03-22T06:41:06;13.70;78.50
23669;DHT22;12011;47.422;15.018;2024-03-22T06:43:33;13.30;90.70
23669;DHT22;12011;47.422;15.018;2024-03-22T06:46:01;12.80;86.90
23669;DHT22;12011;47.422;15.018;2024-03-22T06:48:28;12.70;92.50
23669;DHT22;12011;47.422;15.018;2024-03-22T06:50:54;13.00;89.30
23669;DHT22;12011;47.422;15.018;2024-03-22T06:53:24;12.40;90.30
23669;DHT22;12011;47.422;15.018;2024-03-22T06:55:50;12.80;95.00
23669;DHT22;12011;47.422;15.018;2024-03-22T06:58:17;13.00;79.90
23669;DHT22;12011;47.422;15.018;2024-03-22T07:00:44;13.80;84.20
23669;DHT22;12011;47.422;15.018;2024-03-22T07:03:11;14.20;67.70
23669;DHT22;12011;47.422;15.018;2024-03-22T07:05:37;14.80;63.50
23669;DHT22;12011;47.422;15.018;2024-03-22T07:08:05;15.20;61.60
23669;DHT22;12011;47.422;15.018;2024-03-22T07:10:38;15.70;57.10
23669;DHT22;12011;47.422;15.018;2024-03-22T07:13:04;16.10;54.40
23669;DHT22;12011;47.422;15.018;2024-03-22T07:15:31;16.70;51.50
23669;DHT22;12011;47.422;15.018;2024-03-22T07:17:58;17.00;49.90
23669;DHT22;12011;47.422;15.018;2024-03-22T07:20:25;17.10;49.70
23669;DHT22;12011;47.422;15.018;2024-03-22T07:22:52;16.80;48.80
23669;DHT22;12011;47.422;15.018;2024-03-22T07:25:19;17.40;48.10
23669;DHT22;12011;47.422;15.018;2024-03-22T07:27:49;17.80;51.00
23669;DHT22;12011;47.422;15.018;2024-03-22T07:30:15;18.20;49.30
23669;DHT22;12011;47.422;15.018;2024-03-22T07:32:42;18.40;50.80
23669;DHT22;12011;47.422;15.018;2024-03-22T07:35:09;18.50;51.70
23669;DHT22;12011;47.422;15.018;2024-03-22T07:37:36;17.80;42.90
23669;DHT22;12011;47.422;15.018;2024-03-22T07:40:03;17.40;48.80
23669;DHT22;12011;47.422;15.018;2024-03-22T07:42:30;16.40;51.40
23669;DHT22;12011;47.422;15.018;2024-03-22T07:45:00;16.40;49.80
23669;DHT22;12011;47.422;15.018;2024-03-22T07:47:27;16.20;53.10
23669;DHT22;12011;47.422;15.018;2024-03-22T07:49:54;15.60;50.60
23669;DHT22;12011;47.422;15.018;2024-03-22T07:52:20;15.30;59.50
23669;DHT22;12011;47.422;15.018;2024-03-22T07:54:47;15.60;58.60
23669;DHT22;12011;47.422;15.018;2024-03-22T07:57:14;16.30;62.30
23669;DHT22;12011;47.422;15.018;2024-03-22T07:59:41;16.00;55.30
23669;DHT22;12011;47.422;15.018;2024-03-22T08:02:11;15.80;53.60
23669;DHT22;12011;47.422;15.018;2024-03-22T08:04:37;15.60;54.10
23669;DHT22;12011;47.422;15.018;2024-03-22T08:07:04;15.00;55.10
23669;DHT22;12011;47.422;15.018;2024-03-22T08:09:31;14.90;60.90
23669;DHT22;12011;47.422;15.018;2024-03-22T08:11:58;14.70;58.10
23669;DHT22;12011;47.422;15.018;2024-03-22T08:14:24;14.70;66.30
23669;DHT22;12011;47.422;15.018;2024-03-22T08:16:51;15.00;70.20
23669;DHT22;12011;47.422;15.018;2024-03-22T08:19:21;15.10;63.60
23669;DHT22;12011;47.422;15.018;2024-03-22T08:21:47;15.30;65.20
23669;DHT22;12011;47.422;15.018;2024-03-22T08:24:14;15.60;69.30
23669;DHT22;12011;47.422;15.018;2024-03-22T08:26:41;15.60;63.40
23669;DHT22;12011;47.422;15.018;2024-03-22T08:29:08;15.40;56.70
23669;DHT22;12011;47.422;15.018;2024-03-22T08:31:35;15.20;59.60
23669;DHT22;12011;47.422;15.018;2024-03-22T08:34:01;15.20;63.80
23669;DHT22;12011;47.422;15.018;2024-03-22T08:36:31;14.80;63.30
23669;DHT22;12011;47.422;15.018;2024-03-22T08:38:58;14.80;60.60
23669;DHT22;12011;47.422;15.018;2024-03-22T08:41:25;14.70;66.50
23669;DHT22;12011;47.422;15.018;2024-03-22T08:43:51;14.30;60.90
23669;DHT22;12011;47.422;15.018;2024-03-22T08:46:18;14.40;64.70
23669;DHT22;12011;47.422;15.018;2024-03-22T08:48:45;14.30;64.60
23669;DHT22;12011;47.422;15.018;2024-03-22T08:51:12;14.40;62.10
23669;DHT22;12011;47.422;15.018;2024-03-22T08:53:41;14.20;58.30
23669;DHT22;12011;47.422;15.018;2024-03-22T08:56:08;14.00;56.80
23669;DHT22;12011;47.422;15.018;2024-03-22T08:58:35;14.10;60.90
23669;DHT22;12011;47.422;15.018;2024-03-22T09:01:02;14.20;64.10
23669;DHT22;12011;47.422;15.018;2024-03-22T09:03:29;14.50;70.90
23669;DHT22;12011;47.422;15.018;2024-03-22T09:05:57;14.70;70.70
23669;DHT22;12011;47.422;15.018;2024-03-22T09:08:24;14.90;59.70
23669;DHT22;12011;47.422;15.018;2024-03-22T09:10:53;14.90;58.00
23669;DHT22;12011;47.422;15.018;2024-03-22T09:13:20;14.80;59.40
23669;DHT22;12011;47.422;15.018;2024-03-22T09:15:47;14.90;56.20
23669;DHT22;12011;47.422;15.018;2024-03-22T09:18:13;15.20;65.80
23669;DHT22;12011;47.422;15.018;2024-03-22T09:20:40;15.20;50.00
23669;DHT22;12011;47.422;15.018;2024-03-22T09:23:07;15.50;65.60
23669;DHT22;12011;47.422;15.018;2024-03-22T09:25:34;15.80;66.10
23669;DHT22;12011;47.422;15.018;2024-03-22T09:28:04;15.70;50.50
23669;DHT22;12011;47.422;15.018;2024-03-22T09:30:31;16.00;49.50
23669;DHT22;12011;47.422;15.018;2024-03-22T09:32:58;15.60;50.70
23669;DHT22;12011;47.422;15.018;2024-03-22T09:35:25;16.00;51.10
23669;DHT22;12011;47.422;15.018;2024-03-22T09:37:51;16.30;51.60
23669;DHT22;12011;47.422;15.018;2024-03-22T09:40:18;16.60;49.40
23669;DHT22;12011;47.422;15.018;2024-03-22T09:42:49;17.20;55.60
23669;DHT22;12011;47.422;15.018;2024-03-22T09:45:19;18.00;57.40
23669;DHT22;12011;47.422;15.018;2024-03-22T09:47:48;18.70;51.00
23669;DHT22;12011;47.422;15.018;2024-03-22T09:50:16;18.50;40.50
23669;DHT22;12011;47.422;15.018;2024-03-22T09:52:45;18.50;40.30
23669;DHT22;12011;47.422;15.018;2024-03-22T09:55:12;18.60;38.80
23669;DHT22;12011;47.422;15.018;2024-03-22T09:57:41;18.80;36.30
23669;DHT22;12011;47.422;15.018;2024-03-22T10:00:10;18.90;34.70
23669;DHT22;12011;47.422;15.018;2024-03-22T10:02:42;18.70;35.90
23669;DHT22;12011;47.422;15.018;2024-03-22T10:05:10;18.60;34.70
23669;DHT22;12011;47.422;15.018;2024-03-22T10:07:37;18.60;39.30
23669;DHT22;12011;47.422;15.018;2024-03-22T10:10:05;18.80;36.30
23669;DHT22;12011;47.422;15.018;2024-03-22T10:12:32;18.40;36.00
23669;DHT22;12011;47.422;15.018;2024-03-22T10:14:59;19.10;33.60
23669;DHT22;12011;47.422;15.018;2024-03-22T10:17:26;20.50;43.20
23669;DHT22;12011;47.422;15.018;2024-03-22T10:19:56;22.10;31.80
23669;DHT22;12011;47.422;15.018;2024-03-22T10:22:23;23.60;33.90
23669;DHT22;12011;47.422;15.018;2024-03-22T10:24:50;24.80;31.30
23669;DHT22;12011;47.422;15.018;2024-03-22T10:27:17;26.20;25.20
23669;DHT22;12011;47.422;15.018;2024-03-22T10:29:46;26.70;26.50
23669;DHT22;12011;47.422;15.018;2024-03-22T10:32:16;26.30;24.00
23669;DHT22;12011;47.422;15.018;2024-03-22T10:34:46;26.60;25.80
23669;DHT22;12011;47.422;15.018;2024-03-22T10:37:16;26.10;23.70
23669;DHT22;12011;47.422;15.018;2024-03-22T10:39:43;25.50;22.30
23669;DHT22;12011;47.422;15.018;2024-03-22T10:42:12;25.40;22.80
23669;DHT22;12011;47.422;15.018;2024-03-22T10:44:41;24.70;23.00
23669;DHT22;12011;47.422;15.018;2024-03-22T10:47:10;25.20;25.80
23669;DHT22;12011;47.422;15.018;2024-03-22T10:49:39;24.20;23.60
23669;DHT22;12011;47.422;15.018;2024-03-22T10:52:08;23.00;23.50
23669;DHT22;12011;47.422;15.018;2024-03-22T10:54:40;23.00;27.30
23669;DHT22;12011;47.422;15.018;2024-03-22T10:57:14;23.20;26.90
23669;DHT22;12011;47.422;15.018;2024-03-22T10:59:42;22.40;25.00
23669;DHT22;12011;47.422;15.018;2024-03-22T11:02:11;21.70;25.50
23669;DHT22;12011;47.422;15.018;2024-03-22T11:04:38;21.30;27.50
23669;DHT22;12011;47.422;15.018;2024-03-22T11:07:05;21.50;27.90
23669;DHT22;12011;47.422;15.018;2024-03-22T11:09:32;21.10;26.10
23669;DHT22;12011;47.422;15.018;2024-03-22T11:12:04;21.30;27.20
23669;DHT22;12011;47.422;15.018;2024-03-22T11:14:31;21.30;27.50
23669;DHT22;12011;47.422;15.018;2024-03-22T11:16:57;21.20;29.20
23669;DHT22;12011;47.422;15.018;2024-03-22T11:19:24;21.70;28.40
23669;DHT22;12011;47.422;15.018;2024-03-22T11:21:51;22.50;30.20
23669;DHT22;12011;47.422;15.018;2024-03-22T11:24:18;22.30;26.30
23669;DHT22;12011;47.422;15.018;2024-03-22T11:26:45;22.20;26.00
23669;DHT22;12011;47.422;15.018;2024-03-22T11:29:15;22.90;29.50
23669;DHT22;12011;47.422;15.018;2024-03-22T11:31:42;23.90;28.10
23669;DHT22;12011;47.422;15.018;2024-03-22T11:34:10;24.70;25.90
23669;DHT22;12011;47.422;15.018;2024-03-22T11:36:37;24.30;24.20
23669;DHT22;12011;47.422;15.018;2024-03-22T11:39:04;23.80;24.20
23669;DHT22;12011;47.422;15.018;2024-03-22T11:41:32;24.30;27.30
23669;DHT22;12011;47.422;15.018;2024-03-22T11:44:00;24.00;25.70
23669;DHT22;12011;47.422;15.018;2024-03-22T11:46:30;23.60;26.90
23669;DHT22;12011;47.422;15.018;2024-03-22T11:48:57;23.90;24.20
23669;DHT22;12011;47.422;15.018;2024-03-22T11:51:25;24.00;22.20
23669;DHT22;12011;47.422;15.018;2024-03-22T11:53:52;25.00;27.70
23669;DHT22;12011;47.422;15.018;2024-03-22T11:56:20;25.10;23.30
23669;DHT22;12011;47.422;15.018;2024-03-22T11:58:47;25.20;24.10
23669;DHT22;12011;47.422;15.018;2024-03-22T12:01:15;24.60;21.80
23669;DHT22;12011;47.422;15.018;2024-03-22T12:06:22;24.10;23.90
23669;DHT22;12011;47.422;15.018;2024-03-22T12:08:55;24.30;21.50
23669;DHT22;12011;47.422;15.018;2024-03-22T12:11:29;24.20;22.20
23669;DHT22;12011;47.422;15.018;2024-03-22T12:13:57;23.50;22.20
23669;DHT22;12011;47.422;15.018;2024-03-22T12:16:28;23.80;27.10
23669;DHT22;12011;47.422;15.018;2024-03-22T12:18:56;24.20;27.20
23669;DHT22;12011;47.422;15.018;2024-03-22T12:21:50;24.30;27.00
23669;DHT22;12011;47.422;15.018;2024-03-22T12:24:23;23.60;23.20
23669;DHT22;12011;47.422;15.018;2024-03-22T12:26:51;23.60;28.60
23669;DHT22;12011;47.422;15.018;2024-03-22T12:29:20;23.90;24.60
23669;DHT22;12011;47.422;15.018;2024-03-22T12:31:48;23.60;24.20
23669;DHT22;12011;47.422;15.018;2024-03-22T12:34:17;23.00;22.90
23669;DHT22;12011;47.422;15.018;2024-03-22T12:36:55;22.70;23.90
23669;DHT22;12011;47.422;15.018;2024-03-22T12:39:26;22.80;24.70
23669;DHT22;12011;47.422;15.018;2024-03-22T12:41:54;22.80;24.70
23669;DHT22;12011;47.422;15.018;2024-03-22T12:44:23;22.90;27.50
23669;DHT22;12011;47.422;15.018;2024-03-22T12:46:51;22.10;28.60
23669;DHT22;12011;47.422;15.018;2024-03-22T12:49:20;22.60;25.50
23669;DHT22;12011;47.422;15.018;2024-03-22T12:51:51;22.70;25.00
23669;DHT22;12011;47.422;15.018;2024-03-22T12:54:24;22.60;27.40
23669;DHT22;12011;47.422;15.018;2024-03-22T12:56:56;22.60;25.80
23669;DHT22;12011;47.422;15.018;2024-03-22T12:59:24;22.30;26.40
23669;DHT22;12011;47.422;15.018;2024-03-22T13:01:52;22.00;27.60
23669;DHT22;12011;47.422;15.018;2024-03-22T13:04:20;21.60;26.60
23669;DHT22;12011;47.422;15.018;2024-03-22T13:06:50;21.60;25.60
23669;DHT22;12011;47.422;15.018;2024-03-22T13:09:20;21.50;25.10
23669;DHT22;12011;47.422;15.018;2024-03-22T13:11:48;21.30;26.30
23669;DHT22;12011;47.422;15.018;2024-03-22T13:14:16;21.10;27.40
23669;DHT22;12011;47.422;15.018;2024-03-22T13:16:45;21.00;26.80
23669;DHT22;12011;47.422;15.018;2024-03-22T13:19:13;21.10;27.00
23669;DHT22;12011;47.422;15.018;2024-03-22T13:21:41;21.10;26.50
23669;DHT22;12011;47.422;15.018;2024-03-22T13:24:11;21.00;27.40
23669;DHT22;12011;47.422;15.018;2024-03-22T13:26:41;20.90;25.40
23669;DHT22;12011;47.422;15.018;2024-03-22T13:29:09;20.70;26.50
23669;DHT22;12011;47.422;15.018;2024-03-22T13:31:38;20.60;26.00
23669;DHT22;12011;47.422;15.018;2024-03-22T13:34:06;20.40;26.00
23669;DHT22;12011;47.422;15.018;2024-03-22T13:36:34;20.10;26.50
23669;DHT22;12011;47.422;15.018;2024-03-22T13:39:02;19.80;25.10
23669;DHT22;12011;47.422;15.018;2024-03-22T13:41:30;19.40;26.50
23669;DHT22;12011;47.422;15.018;2024-03-22T13:44:00;19.30;28.00
23669;DHT22;12011;47.422;15.018;2024-03-22T13:46:30;19.10;29.50
23669;DHT22;12011;47.422;15.018;2024-03-22T13:49:00;18.70;27.10
23669;DHT22;12011;47.422;15.018;2024-03-22T13:51:31;18.50;27.20
23669;DHT22;12011;47.422;15.018;2024-03-22T13:54:00;18.70;26.40
23669;DHT22;12011;47.422;15.018;2024-03-22T13:56:32;18.70;26.80
23669;DHT22;12011;47.422;15.018;2024-03-22T13:59:06;19.00;31.10
23669;DHT22;12011;47.422;15.018;2024-03-22T14:01:34;19.00;31.00
23669;DHT22;12011;47.422;15.018;2024-03-22T14:04:02;19.10;31.10
23669;DHT22;12011;47.422;15.018;2024-03-22T14:06:30;18.80;28.40
23669;DHT22;12011;47.422;15.018;2024-03-22T14:08:58;18.60;27.00
23669;DHT22;12011;47.422;15.018;2024-03-22T14:11:27;18.80;26.40
23669;DHT22;12011;47.422;15.018;2024-03-22T14:13:54;18.90;30.00
23669;DHT22;12011;47.422;15.018;2024-03-22T14:16:25;18.90;30.90
23669;DHT22;12011;47.422;15.018;2024-03-22T14:18:56;19.00;25.70
23669;DHT22;12011;47.422;15.018;2024-03-22T14:21:24;19.30;29.60
23669;DHT22;12011;47.422;15.018;2024-03-22T14:23:53;19.50;30.90
23669;DHT22;12011;47.422;15.018;2024-03-22T14:26:22;19.40;30.30
23669;DHT22;12011;47.422;15.018;2024-03-22T14:28:50;19.20;28.80
23669;DHT22;12011;47.422;15.018;2024-03-22T14:31:18;19.30;27.80
23669;DHT22;12011;47.422;15.018;2024-03-22T14:33:48;19.60;27.40
23669;DHT22;12011;47.422;15.018;2024-03-22T14:36:16;19.60;25.60
23669;DHT22;12011;47.422;15.018;2024-03-22T14:38:44;19.60;25.80
23669;DHT22;12011;47.422;15.018;2024-03-22T14:41:12;19.50;26.40
23669;DHT22;12011;47.422;15.018;2024-03-22T14:43:40;19.40;27.90
23669;DHT22;12011;47.422;15.018;2024-03-22T14:46:11;19.10;27.60
23669;DHT22;12011;47.422;15.018;2024-03-22T14:48:39;19.00;26.60
23669;DHT22;12011;47.422;15.018;2024-03-22T14:51:09;18.90;28.60
23669;DHT22;12011;47.422;15.018;2024-03-22T14:53:37;18.90;30.50
23669;DHT22;12011;47.422;15.018;2024-03-22T14:56:07;18.60;27.90
23669;DHT22;12011;47.422;15.018;2024-03-22T14:58:35;18.70;30.40
23669;DHT22;12011;47.422;15.018;2024-03-22T15:01:04;18.30;30.00
23669;DHT22;12011;47.422;15.018;2024-03-22T15:03:36;18.10;30.10
23669;DHT22;12011;47.422;15.018;2024-03-22T15:06:04;18.00;32.10
23669;DHT22;12011;47.422;15.018;2024-03-22T15:08:34;17.70;26.80
23669;DHT22;12011;47.422;15.018;2024-03-22T15:11:03;17.60;27.60
23669;DHT22;12011;47.422;15.018;2024-03-22T15:13:31;17.20;29.70
23669;DHT22;12011;47.422;15.018;2024-03-22T15:15:59;17.10;30.60
23669;DHT22;12011;47.422;15.018;2024-03-22T15:18:27;17.10;29.60
23669;DHT22;12011;47.422;15.018;2024-03-22T15:20:55;16.90;40.40
23669;DHT22;12011;47.422;15.018;2024-03-22T15:23:22;16.60;36.50
23669;DHT22;12011;47.422;15.018;2024-03-22T15:25:52;16.40;33.00
23669;DHT22;12011;47.422;15.018;2024-03-22T15:28:21;16.30;35.70
23669;DHT22;12011;47.422;15.018;2024-03-22T15:30:53;16.50;31.80
23669;DHT22;12011;47.422;15.018;2024-03-22T15:33:20;16.80;33.60
23669;DHT22;12011;47.422;15.018;2024-03-22T15:35:48;16.90;30.10